createdAt,value
2022-09-15T00:01:20.515Z,2.10
2022-09-15T00:04:21.972Z,2.08
2022-09-15T00:07:24.152Z,2.30
2022-09-15T00:10:26.815Z,2.22
2022-09-15T00:13:28.303Z,2.25
2022-09-15T00:16:31.705Z,2.15
2022-09-15T00:19:33.280Z,2.95
2022-09-15T00:22:35.261Z,2.80
2022-09-15T00:28:43.644Z,2.40
2022-09-15T00:31:45.177Z,2.60
2022-09-15T00:34:46.587Z,2.15
2022-09-15T00:37:47.984Z,2.38
2022-09-15T00:40:52.830Z,2.00
2022-09-15T00:43:57.894Z,2.03
2022-09-15T00:47:18.192Z,2.47
2022-09-15T00:50:20.945Z,2.03
2022-09-15T00:53:24.812Z,2.28
2022-09-15T00:56:27.008Z,2.35
2022-09-15T00:59:31.680Z,2.25
2022-09-15T01:02:35.768Z,2.15
2022-09-15T01:05:46.276Z,1.90
2022-09-15T01:09:03.421Z,1.70
2022-09-15T01:12:05.662Z,2.10
2022-09-15T01:15:08.338Z,2.47
2022-09-15T01:18:24.660Z,2.13
2022-09-15T01:21:48.069Z,2.35
2022-09-15T01:25:20.541Z,2.00
2022-09-15T01:28:47.081Z,2.00
2022-09-15T01:32:25.336Z,1.90
2022-09-15T01:35:34.540Z,1.88
2022-09-15T01:38:51.776Z,1.70
2022-09-15T01:41:58.878Z,1.80
2022-09-15T01:45:15.256Z,1.75
2022-09-15T01:48:24.527Z,1.60
2022-09-15T01:51:28.345Z,1.60
2022-09-15T01:54:35.884Z,1.40
2022-09-15T01:57:37.325Z,1.63
2022-09-15T02:00:43.820Z,1.45
2022-09-15T02:03:57.824Z,1.50
2022-09-15T02:07:11.525Z,1.33
2022-09-15T02:10:26.882Z,1.60
2022-09-15T02:14:10.462Z,1.40
2022-09-15T02:17:14.879Z,1.58
2022-09-15T02:20:33.237Z,1.50
2022-09-15T02:23:40.627Z,1.50
2022-09-15T02:26:43.188Z,1.63
2022-09-15T02:29:47.738Z,1.48
2022-09-15T02:32:56.130Z,1.50
2022-09-15T02:35:58.597Z,1.60
2022-09-15T02:39:05.497Z,1.45
2022-09-15T02:42:07.387Z,1.40
2022-09-15T02:45:09.325Z,1.45
2022-09-15T02:51:12.309Z,1.40
2022-09-15T02:54:13.757Z,1.50
2022-09-15T02:57:15.267Z,1.48
2022-09-15T03:00:19.016Z,1.30
2022-09-15T03:03:21.969Z,1.50
2022-09-15T03:06:23.961Z,1.30
2022-09-15T03:12:26.689Z,1.33
2022-09-15T03:15:28.143Z,1.58
2022-09-15T03:18:30.400Z,1.50
2022-09-15T03:21:31.819Z,1.48
2022-09-15T03:24:33.669Z,1.40
2022-09-15T03:27:35.468Z,1.52
2022-09-15T03:30:36.902Z,1.63
2022-09-15T03:33:38.724Z,1.60
2022-09-15T03:36:41.151Z,1.30
2022-09-15T03:39:42.553Z,1.50
2022-09-15T03:42:43.955Z,1.50
2022-09-15T03:45:45.457Z,1.67
2022-09-15T03:48:49.738Z,1.55
2022-09-15T03:51:51.600Z,1.45
2022-09-15T03:54:53.005Z,1.50
2022-09-15T03:57:54.871Z,1.88
2022-09-15T04:00:56.929Z,1.42
2022-09-15T04:07:00.241Z,1.42
2022-09-15T04:10:01.965Z,1.60
2022-09-15T04:13:03.379Z,1.60
2022-09-15T04:16:09.769Z,1.55
2022-09-15T04:19:11.703Z,1.50
2022-09-15T04:22:17.558Z,1.40
2022-09-15T04:25:19.337Z,1.50
2022-09-15T04:28:20.744Z,1.70
2022-09-15T04:31:22.359Z,1.70
2022-09-15T04:34:24.594Z,1.33
2022-09-15T04:37:26.073Z,1.40
2022-09-15T04:40:27.547Z,1.80
2022-09-15T04:43:28.984Z,1.80
2022-09-15T04:46:30.959Z,1.58
2022-09-15T04:52:33.836Z,1.73
2022-09-15T04:55:35.885Z,1.60
2022-09-15T05:01:40.182Z,1.60
2022-09-15T05:04:41.611Z,1.60
2022-09-15T05:07:43.008Z,1.98
2022-09-15T05:10:44.496Z,1.58
2022-09-15T05:13:46.192Z,1.70
2022-09-15T05:16:47.607Z,1.58
2022-09-15T05:19:49.145Z,1.58
2022-09-15T05:22:50.534Z,1.70
2022-09-15T05:25:59.786Z,1.75
2022-09-15T05:29:01.264Z,1.50
2022-09-15T05:32:02.678Z,1.95
2022-09-15T05:35:06.384Z,1.50
2022-09-15T05:38:07.789Z,1.45
2022-09-15T05:41:15.969Z,1.35
2022-09-15T05:44:17.532Z,1.73
2022-09-15T05:47:19.038Z,1.77
2022-09-15T05:50:20.620Z,1.73
2022-09-15T05:53:23.246Z,1.70
2022-09-15T05:56:24.660Z,1.80
2022-09-15T05:59:26.067Z,1.55
2022-09-15T06:02:27.491Z,1.55
2022-09-15T06:05:29.321Z,1.70
2022-09-15T06:08:50.035Z,1.58
2022-09-15T06:11:54.442Z,1.60
2022-09-15T06:14:56.649Z,1.60
2022-09-15T06:17:58.403Z,1.83
2022-09-15T06:21:10.955Z,2.03
2022-09-15T06:24:12.521Z,2.08
2022-09-15T06:27:13.909Z,1.90
2022-09-15T06:30:15.898Z,1.70
2022-09-15T06:33:17.313Z,1.50
2022-09-15T06:36:20.971Z,1.38
2022-09-15T06:39:22.363Z,1.77
2022-09-15T06:42:23.800Z,1.73
2022-09-15T06:45:25.221Z,1.83
2022-09-15T06:48:26.690Z,1.60
2022-09-15T06:51:31.290Z,1.75
2022-09-15T06:54:32.772Z,1.80
2022-09-15T06:57:34.275Z,1.80
2022-09-15T07:00:35.702Z,1.58
2022-09-15T07:03:38.968Z,1.83
2022-09-15T07:06:40.490Z,1.60
2022-09-15T07:09:43.467Z,1.65
2022-09-15T07:12:47.444Z,1.60
2022-09-15T07:16:00.197Z,1.45
2022-09-15T07:19:03.586Z,1.30
2022-09-15T07:22:05.316Z,1.45
2022-09-15T07:25:06.935Z,1.70
2022-09-15T07:28:08.333Z,1.48
2022-09-15T07:31:13.182Z,1.67
2022-09-15T07:34:14.675Z,1.60
2022-09-15T07:37:16.201Z,1.60
2022-09-15T07:40:18.704Z,1.60
2022-09-15T07:43:20.327Z,1.30
2022-09-15T07:46:23.732Z,1.45
2022-09-15T07:49:25.208Z,1.48
2022-09-15T07:52:26.628Z,1.40
2022-09-15T07:55:28.224Z,1.50
2022-09-15T07:58:29.843Z,1.38
2022-09-15T08:01:31.298Z,1.50
2022-09-15T08:04:32.808Z,1.30
2022-09-15T08:07:34.241Z,1.50
2022-09-15T08:10:39.882Z,1.60
2022-09-15T08:13:41.327Z,1.40
2022-09-15T08:16:42.776Z,1.27
2022-09-15T08:19:44.264Z,1.38
2022-09-15T08:22:46.155Z,1.33
2022-09-15T08:25:47.786Z,1.20
2022-09-15T08:28:49.220Z,1.33
2022-09-15T08:31:50.667Z,1.25
2022-09-15T08:34:52.116Z,1.60
2022-09-15T08:37:55.118Z,1.42
2022-09-15T08:41:04.385Z,1.67
2022-09-15T08:44:08.723Z,1.60
2022-09-15T08:47:17.559Z,1.50
2022-09-15T08:50:27.360Z,1.95
2022-09-15T08:53:34.413Z,1.67
2022-09-15T08:56:37.053Z,1.80
2022-09-15T08:59:39.925Z,1.60
2022-09-15T09:02:58.094Z,1.70
2022-09-15T09:06:26.279Z,1.90
2022-09-15T09:09:36.557Z,1.50
2022-09-15T09:12:55.301Z,1.90
2022-09-15T09:16:04.528Z,1.65
2022-09-15T09:19:43.766Z,1.60
2022-09-15T09:22:48.563Z,1.80
2022-09-15T09:25:50.858Z,2.00
2022-09-15T09:29:00.598Z,1.98
2022-09-15T09:32:03.436Z,2.40
2022-09-15T09:35:24.134Z,2.08
2022-09-15T09:38:30.651Z,2.00
2022-09-15T09:41:36.402Z,2.10
2022-09-15T09:44:40.328Z,2.30
2022-09-15T09:47:42.800Z,2.13
2022-09-15T09:50:44.603Z,2.55
2022-09-15T09:53:53.811Z,2.45
2022-09-15T09:57:16.695Z,2.63
2022-09-15T10:00:39.681Z,2.30
2022-09-15T10:03:43.213Z,2.40
2022-09-15T10:06:45.125Z,2.50
2022-09-15T10:09:58.565Z,2.42
2022-09-15T10:13:03.008Z,2.28
2022-09-15T10:16:06.559Z,2.50
2022-09-15T10:19:13.998Z,2.40
2022-09-15T10:22:36.178Z,2.28
2022-09-15T10:29:15.803Z,2.40
2022-09-15T10:32:25.545Z,2.47
2022-09-15T10:35:32.728Z,2.53
2022-09-15T10:38:56.156Z,2.88
2022-09-15T10:42:25.322Z,2.00
2022-09-15T10:45:33.938Z,0.63
2022-09-15T10:48:43.914Z,0.65
2022-09-15T10:52:01.338Z,0.82
2022-09-15T10:55:51.086Z,0.90
2022-09-15T10:59:04.533Z,1.00
2022-09-15T11:02:24.820Z,1.60
2022-09-15T11:05:37.492Z,1.98
2022-09-15T11:09:00.781Z,2.05
2022-09-15T11:12:20.040Z,2.40
2022-09-15T11:15:38.037Z,2.50
2022-09-15T11:19:04.356Z,3.15
2022-09-15T11:22:14.431Z,3.80
2022-09-15T11:25:19.142Z,2.65
2022-09-15T11:28:28.176Z,3.00
2022-09-15T11:31:42.026Z,3.28
2022-09-15T11:34:55.093Z,3.35
2022-09-15T11:38:03.280Z,3.30
2022-09-15T11:41:23.421Z,3.50
2022-09-15T11:44:32.838Z,3.17
2022-09-15T11:47:42.488Z,3.53
2022-09-15T11:50:48.982Z,3.53
2022-09-15T11:54:00.520Z,3.58
2022-09-15T11:57:02.018Z,3.55
2022-09-15T12:00:06.997Z,3.58
2022-09-15T12:03:32.518Z,3.95
2022-09-15T12:06:54.191Z,4.47
2022-09-15T12:10:03.754Z,4.28
2022-09-15T12:13:05.764Z,4.32
2022-09-15T12:16:08.268Z,4.60
2022-09-15T12:19:40.107Z,4.15
2022-09-15T12:22:49.432Z,4.40
2022-09-15T12:26:14.248Z,4.45
2022-09-15T12:29:21.737Z,4.70
2022-09-15T12:32:34.789Z,4.70
2022-09-15T12:35:36.441Z,4.65
2022-09-15T12:38:37.846Z,4.80
2022-09-15T12:42:01.167Z,4.00
2022-09-15T12:45:24.326Z,4.00
2022-09-15T12:48:32.461Z,4.32
2022-09-15T12:51:33.864Z,4.15
2022-09-15T12:54:37.662Z,4.30
2022-09-15T12:57:39.057Z,4.00
2022-09-15T13:01:06.842Z,4.13
2022-09-15T13:04:05.668Z,4.47
2022-09-15T13:07:16.096Z,4.05
2022-09-15T13:10:34.575Z,3.50
2022-09-15T13:13:43.904Z,3.65
2022-09-15T13:16:54.745Z,3.20
2022-09-15T13:20:01.997Z,3.42
2022-09-15T13:23:08.499Z,3.30
2022-09-15T13:26:17.693Z,3.55
2022-09-15T13:29:21.010Z,3.53
2022-09-15T13:32:34.457Z,3.47
2022-09-15T13:35:56.733Z,2.95
2022-09-15T13:42:28.707Z,2.70
2022-09-15T13:46:11.985Z,3.55
2022-09-15T13:49:38.407Z,3.38
2022-09-15T13:53:06.064Z,3.42
2022-09-15T13:56:11.603Z,3.53
2022-09-15T13:59:30.476Z,3.28
2022-09-15T14:02:32.120Z,3.40
2022-09-15T14:05:35.885Z,3.28
2022-09-15T14:08:38.832Z,3.05
2022-09-15T14:11:42.341Z,3.25
2022-09-15T14:14:53.602Z,3.05
2022-09-15T14:17:55.693Z,3.50
2022-09-15T14:24:20.292Z,2.63
2022-09-15T14:27:28.905Z,2.60
2022-09-15T14:30:32.166Z,3.08
2022-09-15T14:33:38.306Z,2.85
2022-09-15T14:36:40.819Z,3.25
2022-09-15T14:39:49.295Z,2.70
2022-09-15T14:42:51.347Z,2.95
2022-09-15T14:49:09.709Z,2.83
2022-09-15T14:52:24.089Z,3.05
2022-09-15T14:55:29.049Z,3.25
2022-09-15T14:58:41.930Z,2.75
2022-09-15T15:01:48.866Z,3.10
2022-09-15T15:05:05.981Z,2.95
2022-09-15T15:08:12.707Z,3.30
2022-09-15T15:11:17.936Z,2.83
2022-09-15T15:14:19.700Z,3.35
2022-09-15T15:17:36.609Z,3.03
2022-09-15T15:20:49.304Z,2.90
2022-09-15T15:23:50.765Z,3.03
2022-09-15T15:26:52.980Z,2.95
2022-09-15T15:29:54.662Z,3.22
2022-09-15T15:32:59.496Z,2.83
2022-09-15T15:36:05.343Z,3.10
2022-09-15T15:39:19.736Z,3.10
2022-09-15T15:42:21.351Z,3.42
2022-09-15T15:45:25.942Z,3.17
2022-09-15T15:48:36.837Z,3.03
2022-09-15T15:54:42.194Z,3.03
2022-09-15T15:57:46.672Z,3.05
2022-09-15T16:00:49.889Z,2.88
2022-09-15T16:03:51.353Z,3.00
2022-09-15T16:06:52.868Z,3.00
2022-09-15T16:09:54.994Z,3.20
2022-09-15T16:16:00.224Z,3.00
2022-09-15T16:19:01.926Z,3.13
2022-09-15T16:22:05.435Z,3.30
2022-09-15T16:25:35.691Z,3.17
2022-09-15T16:28:37.124Z,3.30
2022-09-15T16:31:38.642Z,3.25
2022-09-15T16:34:40.085Z,3.20
2022-09-15T16:37:41.536Z,2.97
2022-09-15T16:40:43.031Z,3.22
2022-09-15T16:43:46.455Z,3.30
2022-09-15T16:46:48.010Z,3.30
2022-09-15T16:49:51.228Z,3.10
2022-09-15T16:52:52.908Z,3.55
2022-09-15T16:55:57.535Z,3.40
2022-09-15T16:59:00.709Z,3.03
2022-09-15T17:02:02.695Z,3.00
2022-09-15T17:05:20.164Z,3.30
2022-09-15T17:08:24.581Z,3.42
2022-09-15T17:11:26.667Z,3.25
2022-09-15T17:14:28.250Z,3.28
2022-09-15T17:17:29.749Z,3.30
2022-09-15T17:20:34.737Z,3.40
2022-09-15T17:23:41.157Z,3.30
2022-09-15T17:26:42.691Z,3.65
2022-09-15T17:29:44.770Z,3.75
2022-09-15T17:32:46.823Z,3.63
2022-09-15T17:35:49.502Z,3.50
2022-09-15T17:38:50.957Z,3.33
2022-09-15T17:41:52.571Z,3.45
2022-09-15T17:44:54.041Z,3.42
2022-09-15T17:47:55.910Z,3.40
2022-09-15T17:50:57.510Z,3.10
2022-09-15T17:53:58.908Z,3.40
2022-09-15T17:57:00.348Z,3.00
2022-09-15T18:00:02.025Z,2.80
2022-09-15T18:03:23.841Z,3.03
2022-09-15T18:06:25.237Z,2.90
2022-09-15T18:09:26.654Z,3.22
2022-09-15T18:12:28.086Z,3.50
2022-09-15T18:15:32.599Z,3.50
2022-09-15T18:18:34.208Z,3.38
2022-09-15T18:21:35.874Z,3.25
2022-09-15T18:24:37.278Z,2.92
2022-09-15T18:27:38.679Z,3.53
2022-09-15T18:30:42.472Z,3.83
2022-09-15T18:33:43.910Z,3.80
2022-09-15T18:36:45.332Z,3.78
2022-09-15T18:39:46.795Z,4.05
2022-09-15T18:42:48.225Z,3.70
2022-09-15T18:45:50.370Z,3.85
2022-09-15T18:48:52.314Z,3.90
2022-09-15T18:51:53.721Z,4.13
2022-09-15T18:54:55.287Z,3.80
2022-09-15T18:58:00.853Z,4.00
2022-09-15T19:01:03.012Z,3.67
2022-09-15T19:04:04.491Z,3.75
2022-09-15T19:07:05.953Z,3.90
2022-09-15T19:10:08.096Z,4.28
2022-09-15T19:16:13.033Z,3.80
2022-09-15T19:19:14.799Z,3.78
2022-09-15T19:22:16.401Z,3.75
2022-09-15T19:25:17.861Z,3.83
2022-09-15T19:28:19.574Z,3.53
2022-09-15T19:31:21.717Z,3.40
2022-09-15T19:34:23.493Z,3.60
2022-09-15T19:37:24.991Z,3.60
2022-09-15T19:40:26.774Z,3.80
2022-09-15T19:43:28.789Z,3.65
2022-09-15T19:46:30.991Z,3.67
2022-09-15T19:49:32.412Z,3.97
2022-09-15T19:52:33.807Z,4.00
2022-09-15T19:55:35.269Z,3.65
2022-09-15T19:58:36.736Z,3.83
2022-09-15T20:01:38.204Z,3.78
2022-09-15T20:04:39.990Z,3.90
2022-09-15T20:07:41.448Z,3.88
2022-09-15T20:10:42.980Z,3.80
2022-09-15T20:13:45.063Z,3.85
2022-09-15T20:19:47.950Z,4.10
2022-09-15T20:22:49.413Z,4.00
2022-09-15T20:25:58.590Z,4.00
2022-09-15T20:29:01.893Z,3.95
2022-09-15T20:32:03.370Z,3.92
2022-09-15T20:35:05.228Z,4.03
2022-09-15T20:38:06.752Z,4.57
2022-09-15T20:41:09.735Z,3.83
2022-09-15T20:44:11.741Z,3.70
2022-09-15T20:47:13.184Z,4.13
2022-09-15T20:50:17.041Z,4.20
2022-09-15T20:53:18.521Z,4.10
2022-09-15T20:56:24.686Z,4.30
2022-09-15T20:59:26.117Z,4.20
2022-09-15T21:02:27.893Z,4.53
2022-09-15T21:05:29.321Z,4.10
2022-09-15T21:08:30.868Z,4.20
2022-09-15T21:11:32.326Z,4.32
2022-09-15T21:14:33.725Z,4.15
2022-09-15T21:17:35.990Z,4.40
2022-09-15T21:20:37.495Z,4.43
2022-09-15T21:24:06.195Z,5.00
2022-09-15T21:27:26.050Z,4.50
2022-09-15T21:30:27.511Z,5.00
2022-09-15T21:33:29.305Z,4.35
2022-09-15T21:36:31.583Z,4.38
2022-09-15T21:39:33.004Z,4.32
2022-09-15T21:42:34.587Z,4.28
2022-09-15T21:45:37.056Z,4.22
2022-09-15T21:48:39.255Z,4.53
2022-09-15T21:51:40.715Z,4.30
2022-09-15T21:54:43.326Z,4.50
2022-09-15T21:57:44.734Z,4.55
2022-09-15T22:00:47.493Z,4.30
2022-09-15T22:03:54.072Z,4.30
2022-09-15T22:06:55.517Z,4.15
2022-09-15T22:09:56.942Z,4.47
2022-09-15T22:12:58.413Z,3.90
2022-09-15T22:16:04.401Z,4.40
2022-09-15T22:19:07.143Z,4.50
2022-09-15T22:22:08.801Z,4.32
2022-09-15T22:25:11.040Z,4.38
2022-09-15T22:28:12.473Z,4.40
2022-09-15T22:31:16.081Z,3.78
2022-09-15T22:34:17.632Z,3.92
2022-09-15T22:37:19.434Z,4.20
2022-09-15T22:40:20.933Z,3.83
2022-09-15T22:43:23.250Z,4.47
2022-09-15T22:46:25.009Z,4.05
2022-09-15T22:49:27.424Z,4.60
2022-09-15T22:52:28.841Z,4.50
2022-09-15T22:55:31.468Z,4.35
2022-09-15T22:58:37.315Z,4.32
2022-09-15T23:01:38.857Z,4.18
2022-09-15T23:04:40.318Z,4.05
2022-09-15T23:07:41.721Z,4.45
2022-09-15T23:10:43.139Z,4.43
2022-09-15T23:13:44.623Z,4.43
2022-09-15T23:16:46.109Z,4.57
2022-09-15T23:19:47.566Z,4.53
2022-09-15T23:22:49.105Z,4.97
2022-09-15T23:25:50.999Z,4.45
2022-09-15T23:28:52.944Z,4.70
2022-09-15T23:31:54.745Z,4.63
2022-09-15T23:34:56.484Z,4.82
2022-09-15T23:37:59.033Z,4.57
2022-09-15T23:41:00.469Z,4.80
2022-09-15T23:44:02.952Z,4.82
2022-09-15T23:47:04.496Z,4.75
2022-09-15T23:50:06.205Z,4.68
2022-09-15T23:53:07.995Z,4.30
2022-09-15T23:56:09.391Z,4.60
2022-09-15T23:59:10.799Z,4.30
